LGRP/RHO METAR and TAF weather

Enter ICAO airport designator
Station Type Date Time Source
LGRP METAR 2019/12/07 07:20 UTC NOAA

LGRP 070720Z 00000KT 9999 FEW018 12/08 Q1019 NOSIG


Station Type Date Time Source
LGRP Decoded METAR 2019/12/07 07:20 UTC NOAA

Rhodes Airport , Greece (LGRP) 36-24N 028-05E 11M
Dec 07, 2019 - 02:20 AM EST / 2019.12.07 0720 UTC
Wind: Calm:0
Visibility: greater than 7 mile(s):0
Sky conditions: mostly clear
Temperature: 53 F (12 C)
Dew Point: 46 F (8 C)
Relative Humidity: 76%
Pressure (altimeter): 30.09 in. Hg (1019 hPa)
ob: LGRP 070720Z 00000KT 9999 FEW018 12/08 Q1019 NOSIG
cycle: 7

Station Type Date Time Source
LGRP TAF 2019/12/07 06:12 UTC NOAA

TAF LGRP 070500Z 0706/0806 VRB05KT 9999 FEW018
BECMG 0707/0709 26010KT PROB40
TEMPO 0718/0802 5000 SHRA FEW018TCU BKN025

Example: see airport list